createdAt,value
2023-05-14T00:00:33.411Z,12.94
2023-05-14T00:03:27.911Z,12.94
2023-05-14T00:06:02.119Z,12.93
2023-05-14T00:08:37.185Z,12.94
2023-05-14T00:11:11.087Z,12.95
2023-05-14T00:13:45.031Z,12.95
2023-05-14T00:16:19.145Z,12.97
2023-05-14T00:18:53.304Z,12.96
2023-05-14T00:21:29.485Z,12.94
2023-05-14T00:24:03.444Z,12.93
2023-05-14T00:26:37.011Z,12.93
2023-05-14T00:29:13.675Z,12.91
2023-05-14T00:31:47.412Z,12.90
2023-05-14T00:34:21.081Z,12.88
2023-05-14T00:36:55.161Z,12.86
2023-05-14T00:39:29.997Z,12.86
2023-05-14T00:42:03.830Z,12.86
2023-05-14T00:44:38.180Z,12.87
2023-05-14T00:47:13.047Z,12.87
2023-05-14T00:49:47.498Z,12.86
2023-05-14T00:52:22.728Z,12.83
2023-05-14T00:54:56.345Z,12.82
2023-05-14T00:57:30.058Z,12.81
2023-05-14T01:00:04.051Z,12.81
2023-05-14T01:02:37.855Z,12.81
2023-05-14T01:05:12.557Z,12.82
2023-05-14T01:07:54.875Z,12.83
2023-05-14T01:10:34.915Z,12.84
2023-05-14T01:13:15.254Z,12.85
2023-05-14T01:15:49.979Z,12.85
2023-05-14T01:18:24.550Z,12.85
2023-05-14T01:20:58.418Z,12.85
2023-05-14T01:23:33.964Z,12.86
2023-05-14T01:26:11.164Z,12.87
2023-05-14T01:28:44.983Z,12.88
2023-05-14T01:31:25.522Z,12.89
2023-05-14T01:33:59.933Z,12.90
2023-05-14T01:36:34.248Z,12.91
2023-05-14T01:39:09.960Z,12.91
2023-05-14T01:41:43.684Z,12.92
2023-05-14T01:44:17.168Z,12.93
2023-05-14T01:46:50.765Z,12.93
2023-05-14T01:49:24.954Z,12.93
2023-05-14T01:51:58.750Z,12.92
2023-05-14T01:54:34.870Z,12.92
2023-05-14T01:57:09.938Z,12.93
2023-05-14T01:59:43.755Z,12.94
2023-05-14T02:02:19.672Z,12.94
2023-05-14T02:04:53.767Z,12.93
2023-05-14T02:07:27.611Z,12.92
2023-05-14T02:10:01.661Z,12.91
2023-05-14T02:12:35.474Z,12.89
2023-05-14T02:15:11.391Z,12.90
2023-05-14T02:17:46.101Z,12.91
2023-05-14T02:20:20.484Z,12.91
2023-05-14T02:22:54.078Z,12.92
2023-05-14T02:25:28.224Z,12.93
2023-05-14T02:28:02.093Z,12.94
2023-05-14T02:30:35.728Z,12.95
2023-05-14T02:33:09.443Z,12.96
2023-05-14T02:35:44.210Z,12.98
2023-05-14T02:38:17.680Z,13.00
2023-05-14T02:40:51.263Z,13.01
2023-05-14T02:43:24.918Z,13.05
2023-05-14T02:45:58.547Z,13.09
2023-05-14T02:48:31.843Z,13.15
2023-05-14T02:51:06.691Z,13.21
2023-05-14T02:53:40.962Z,13.27
2023-05-14T02:56:14.445Z,13.34
2023-05-14T02:58:49.605Z,13.42
2023-05-14T03:01:23.827Z,13.50
2023-05-14T03:03:58.111Z,13.59
2023-05-14T03:06:32.241Z,13.68
2023-05-14T03:09:05.856Z,13.79
2023-05-14T03:11:39.733Z,13.90
2023-05-14T03:14:13.652Z,14.04
2023-05-14T03:16:47.344Z,14.19
2023-05-14T03:19:20.838Z,14.36
2023-05-14T03:21:54.578Z,14.53
2023-05-14T03:24:28.382Z,14.68
2023-05-14T03:27:01.952Z,14.83
2023-05-14T03:29:35.590Z,14.99
2023-05-14T03:32:10.923Z,15.13
2023-05-14T03:34:45.260Z,15.27
2023-05-14T03:37:19.224Z,15.43
2023-05-14T03:39:52.695Z,15.61
2023-05-14T03:42:26.298Z,15.76
2023-05-14T03:45:03.076Z,15.88
2023-05-14T03:47:36.779Z,15.98
2023-05-14T03:50:12.028Z,16.11
2023-05-14T03:52:46.418Z,16.22
2023-05-14T03:55:21.359Z,16.37
2023-05-14T03:57:55.436Z,16.65
2023-05-14T04:00:29.137Z,17.21
2023-05-14T04:03:03.092Z,19.25
2023-05-14T04:05:38.017Z,20.64
2023-05-14T04:08:11.647Z,21.75
2023-05-14T04:10:46.873Z,23.14
2023-05-14T04:13:20.860Z,23.78
2023-05-14T04:15:55.280Z,24.72
2023-05-14T04:18:29.154Z,25.61
2023-05-14T04:21:03.358Z,26.46
2023-05-14T04:23:37.381Z,27.84
2023-05-14T04:26:11.142Z,28.08
2023-05-14T04:28:44.768Z,28.36
2023-05-14T04:31:19.498Z,28.01
2023-05-14T04:33:53.144Z,28.13
2023-05-14T04:36:26.729Z,27.67
2023-05-14T04:39:00.226Z,27.84
2023-05-14T04:41:35.293Z,28.45
2023-05-14T04:44:09.459Z,28.56
2023-05-14T04:46:43.207Z,28.55
2023-05-14T04:49:17.855Z,28.14
2023-05-14T04:51:52.206Z,27.39
2023-05-14T04:54:26.296Z,26.68
2023-05-14T04:57:03.490Z,25.98
2023-05-14T04:59:37.341Z,25.65
2023-05-14T05:02:11.243Z,25.39
2023-05-14T05:04:45.137Z,25.01
2023-05-14T05:07:18.662Z,24.70
2023-05-14T05:09:52.368Z,24.32
2023-05-14T05:12:26.470Z,24.08
2023-05-14T05:15:00.065Z,23.85
2023-05-14T05:17:34.120Z,23.47
2023-05-14T05:20:11.264Z,23.01
2023-05-14T05:22:45.333Z,22.59
2023-05-14T05:25:19.582Z,22.29
2023-05-14T05:27:53.343Z,22.01
2023-05-14T05:30:37.475Z,21.88
2023-05-14T05:33:11.707Z,21.83
2023-05-14T05:35:45.302Z,21.75
2023-05-14T05:38:26.580Z,21.61
2023-05-14T05:52:50.790Z,21.60
2023-05-14T05:55:24.857Z,21.33
2023-05-14T05:57:58.769Z,21.04
2023-05-14T06:00:32.607Z,20.79
2023-05-14T06:03:06.974Z,20.55
2023-05-14T06:05:43.793Z,20.44
2023-05-14T06:08:17.871Z,20.42
2023-05-14T06:10:52.486Z,20.50
2023-05-14T06:13:26.261Z,20.54
2023-05-14T06:15:59.987Z,20.62
2023-05-14T06:18:40.652Z,20.92
2023-05-14T06:21:14.358Z,21.17
2023-05-14T06:23:48.341Z,21.27
2023-05-14T06:26:22.274Z,21.27
2023-05-14T06:28:57.721Z,21.35
2023-05-14T06:31:31.602Z,21.23
2023-05-14T06:34:07.005Z,21.17
2023-05-14T06:36:43.807Z,21.23
2023-05-14T06:39:17.379Z,21.27
2023-05-14T06:41:51.108Z,21.34
2023-05-14T06:44:26.364Z,21.47
2023-05-14T06:46:59.948Z,21.78
2023-05-14T06:49:35.332Z,22.93
2023-05-14T06:52:09.660Z,23.55
2023-05-14T06:54:43.269Z,23.81
2023-05-14T06:57:17.182Z,24.30
2023-05-14T06:59:54.179Z,24.50
2023-05-14T07:02:27.802Z,24.49
2023-05-14T07:05:03.683Z,24.29
2023-05-14T07:07:37.503Z,24.01
2023-05-14T07:10:15.440Z,23.78
2023-05-14T07:12:52.035Z,23.47
2023-05-14T07:15:27.839Z,23.27
2023-05-14T07:18:01.856Z,23.22
2023-05-14T07:20:35.636Z,23.13
2023-05-14T07:23:09.165Z,23.03
2023-05-14T07:25:42.840Z,23.01
2023-05-14T07:28:16.537Z,22.95
2023-05-14T07:30:51.952Z,22.88
2023-05-14T07:33:26.526Z,22.90
2023-05-14T07:36:02.920Z,22.87
2023-05-14T07:38:40.893Z,22.83
2023-05-14T07:41:14.433Z,22.84
2023-05-14T07:43:49.332Z,22.82
2023-05-14T07:46:30.248Z,22.88
2023-05-14T07:49:04.780Z,22.92
2023-05-14T07:51:40.202Z,22.98
2023-05-14T07:54:19.002Z,23.06
2023-05-14T07:56:56.024Z,23.22
2023-05-14T07:59:30.354Z,23.41
2023-05-14T08:02:19.394Z,23.61
2023-05-14T08:04:56.257Z,23.86
2023-05-14T08:07:30.518Z,24.09
2023-05-14T08:10:07.383Z,24.30
2023-05-14T08:12:41.610Z,24.25
2023-05-14T08:15:19.225Z,24.12
2023-05-14T08:17:52.898Z,23.89
2023-05-14T08:20:27.643Z,23.58
2023-05-14T08:23:01.960Z,23.34
2023-05-14T08:31:30.891Z,22.88
2023-05-14T08:34:01.740Z,22.80
2023-05-14T08:36:33.705Z,22.87
2023-05-14T08:39:04.227Z,22.95
2023-05-14T08:41:34.777Z,23.06
2023-05-14T08:44:09.427Z,23.16
2023-05-14T08:46:40.832Z,23.27
2023-05-14T08:49:32.232Z,23.39
2023-05-14T08:52:03.008Z,23.51
2023-05-14T08:54:33.709Z,23.62
2023-05-14T08:57:05.270Z,23.79
2023-05-14T08:59:36.186Z,23.93
2023-05-14T09:02:07.934Z,24.02
2023-05-14T09:04:39.058Z,24.03
2023-05-14T09:07:09.569Z,23.96
2023-05-14T09:09:41.323Z,23.87
2023-05-14T09:12:12.306Z,23.84
2023-05-14T09:14:42.649Z,23.83
2023-05-14T09:17:12.887Z,23.85
2023-05-14T09:19:45.193Z,23.90
2023-05-14T09:22:23.118Z,23.90
2023-05-14T09:25:06.687Z,23.85
2023-05-14T09:27:37.431Z,23.78
2023-05-14T09:30:10.643Z,23.73
2023-05-14T09:33:21.462Z,23.64
2023-05-14T09:36:00.715Z,23.60
2023-05-14T09:38:31.559Z,23.55
2023-05-14T09:41:02.303Z,23.58
2023-05-14T09:43:33.292Z,23.57
2023-05-14T09:46:03.683Z,23.57
2023-05-14T09:48:34.607Z,23.56
2023-05-14T09:51:07.664Z,23.51
2023-05-14T09:53:38.106Z,23.48
2023-05-14T09:56:08.921Z,23.40
2023-05-14T09:58:39.265Z,23.37
2023-05-14T10:01:19.365Z,23.30
2023-05-14T10:03:56.264Z,23.25
2023-05-14T10:06:39.717Z,23.15
2023-05-14T10:09:13.496Z,23.04
2023-05-14T10:11:47.202Z,22.92
2023-05-14T10:14:31.707Z,22.82
2023-05-14T10:17:19.160Z,22.73
2023-05-14T10:20:05.523Z,22.65
2023-05-14T10:22:36.513Z,22.57
2023-05-14T10:25:10.775Z,22.45
2023-05-14T10:27:41.203Z,22.34
2023-05-14T10:30:16.959Z,22.23
2023-05-14T10:32:48.052Z,22.20
2023-05-14T10:35:20.304Z,22.25
2023-05-14T10:37:52.695Z,22.34
2023-05-14T10:40:25.861Z,22.46
2023-05-14T10:42:57.807Z,22.58
2023-05-14T10:45:30.862Z,22.64
2023-05-14T10:48:02.095Z,22.73
2023-05-14T10:50:32.713Z,22.80
2023-05-14T10:53:02.946Z,22.81
2023-05-14T10:55:36.646Z,22.74
2023-05-14T10:58:08.338Z,22.70
2023-05-14T11:00:39.482Z,22.70
2023-05-14T11:03:10.792Z,22.65
2023-05-14T11:05:43.388Z,22.62
2023-05-14T11:08:14.277Z,22.58
2023-05-14T11:10:46.647Z,22.56
2023-05-14T11:13:18.430Z,22.54
2023-05-14T11:15:49.342Z,22.51
2023-05-14T11:18:32.245Z,22.39
2023-05-14T11:21:03.099Z,22.19
2023-05-14T11:23:33.431Z,22.03
2023-05-14T11:26:04.010Z,21.87
2023-05-14T11:28:34.857Z,21.77
2023-05-14T11:31:05.413Z,21.74
2023-05-14T11:33:35.792Z,21.73
2023-05-14T11:36:07.254Z,21.74
2023-05-14T11:38:48.677Z,21.76
2023-05-14T11:41:21.689Z,21.82
2023-05-14T11:43:54.846Z,21.93
2023-05-14T11:46:25.981Z,21.98
2023-05-14T11:48:56.364Z,21.98
2023-05-14T11:51:26.869Z,21.90
2023-05-14T11:53:58.606Z,21.84
2023-05-14T11:56:29.096Z,21.82
2023-05-14T11:58:59.757Z,21.76
2023-05-14T12:01:38.045Z,21.70
2023-05-14T12:04:08.639Z,21.61
2023-05-14T12:06:41.091Z,21.47
2023-05-14T12:09:16.291Z,21.34
2023-05-14T12:11:46.789Z,21.29
2023-05-14T12:14:19.528Z,21.20
2023-05-14T12:16:50.727Z,21.12
2023-05-14T12:19:23.144Z,21.06
2023-05-14T12:21:53.878Z,21.03
2023-05-14T12:24:27.398Z,20.99
2023-05-14T12:26:57.850Z,20.93
2023-05-14T12:29:28.152Z,20.90
2023-05-14T12:31:59.342Z,20.89
2023-05-14T12:34:29.528Z,20.81
2023-05-14T12:37:00.188Z,20.75
2023-05-14T12:39:31.126Z,20.68
2023-05-14T12:42:02.297Z,20.64
2023-05-14T12:44:34.267Z,20.63
2023-05-14T12:47:05.078Z,20.61
2023-05-14T12:49:36.032Z,20.56
2023-05-14T12:52:25.684Z,20.45
2023-05-14T12:55:00.793Z,20.35
2023-05-14T12:57:31.245Z,20.24
2023-05-14T13:00:01.728Z,20.15
2023-05-14T13:02:42.668Z,20.13
2023-05-14T13:05:14.959Z,20.14
2023-05-14T13:07:45.318Z,20.16
2023-05-14T13:10:18.094Z,20.15
2023-05-14T13:12:48.438Z,20.08
2023-05-14T13:15:18.747Z,20.00
2023-05-14T13:17:50.049Z,19.91
2023-05-14T13:20:25.694Z,19.78
2023-05-14T13:22:56.140Z,19.63
2023-05-14T13:25:27.372Z,19.48
2023-05-14T13:28:05.885Z,19.34
2023-05-14T13:30:36.262Z,19.14
2023-05-14T13:33:07.994Z,18.97
2023-05-14T13:35:40.194Z,18.82
2023-05-14T13:38:11.105Z,18.69
2023-05-14T13:40:41.556Z,18.59
2023-05-14T13:43:11.805Z,18.49
2023-05-14T13:45:41.998Z,18.41
2023-05-14T13:48:15.481Z,18.38
2023-05-14T13:50:46.020Z,18.37
2023-05-14T13:53:16.154Z,18.33
2023-05-14T13:55:47.885Z,18.23
2023-05-14T13:58:19.645Z,18.14
2023-05-14T14:00:52.912Z,18.08
2023-05-14T14:03:23.226Z,18.01
2023-05-14T14:05:54.506Z,17.96
2023-05-14T14:08:24.921Z,17.93
2023-05-14T14:10:56.804Z,17.90
2023-05-14T14:13:27.883Z,17.85
2023-05-14T14:15:57.950Z,17.78
2023-05-14T14:18:29.093Z,17.71
2023-05-14T14:20:59.875Z,17.66
2023-05-14T14:23:30.379Z,17.60
2023-05-14T14:26:00.989Z,17.54
2023-05-14T14:28:31.584Z,17.48
2023-05-14T14:31:02.005Z,17.41
2023-05-14T14:33:32.704Z,17.34
2023-05-14T14:36:04.288Z,17.29
2023-05-14T14:38:34.803Z,17.22
2023-05-14T14:41:06.838Z,17.15
2023-05-14T14:43:41.152Z,17.08
2023-05-14T14:46:13.910Z,17.03
2023-05-14T14:48:47.428Z,16.97
2023-05-14T14:51:18.223Z,16.91
2023-05-14T14:53:49.298Z,16.86
2023-05-14T14:56:20.788Z,16.79
2023-05-14T14:58:53.278Z,16.74
2023-05-14T15:01:25.455Z,16.67
2023-05-14T15:03:56.427Z,16.61
2023-05-14T15:06:26.616Z,16.55
2023-05-14T15:08:56.867Z,16.52
2023-05-14T15:11:27.181Z,16.46
2023-05-14T15:13:57.587Z,16.40
2023-05-14T15:16:27.880Z,16.33
2023-05-14T15:18:58.378Z,16.28
2023-05-14T15:21:29.100Z,16.21
2023-05-14T15:23:59.766Z,16.13
2023-05-14T15:26:29.882Z,16.07
2023-05-14T15:29:00.608Z,16.05
2023-05-14T15:31:32.530Z,16.02
2023-05-14T15:34:03.357Z,15.99
2023-05-14T15:36:33.806Z,15.95
2023-05-14T15:39:04.128Z,15.89
2023-05-14T15:41:34.587Z,15.85
2023-05-14T15:44:07.445Z,15.82
2023-05-14T15:46:38.338Z,15.79
2023-05-14T15:49:08.717Z,15.75
2023-05-14T15:51:39.624Z,15.69
2023-05-14T15:54:10.072Z,15.66
2023-05-14T15:56:41.217Z,15.63
2023-05-14T15:59:14.758Z,15.58
2023-05-14T16:01:44.997Z,15.50
2023-05-14T16:04:16.547Z,15.40
2023-05-14T16:06:49.717Z,15.34
2023-05-14T16:09:22.562Z,15.29
2023-05-14T16:11:54.596Z,15.19
2023-05-14T16:14:42.188Z,15.07
2023-05-14T16:17:12.591Z,15.02
2023-05-14T16:19:49.468Z,14.98
2023-05-14T16:22:22.137Z,14.94
2023-05-14T16:24:53.835Z,14.91
2023-05-14T16:27:24.653Z,14.84
2023-05-14T16:29:55.033Z,14.73
2023-05-14T16:32:27.410Z,14.65
2023-05-14T16:34:58.546Z,14.59
2023-05-14T16:37:29.247Z,14.54
2023-05-14T16:40:00.065Z,14.47
2023-05-14T16:42:30.736Z,14.42
2023-05-14T16:45:02.257Z,14.40
2023-05-14T16:47:33.212Z,14.38
2023-05-14T16:50:15.692Z,14.37
2023-05-14T16:52:49.796Z,14.36
2023-05-14T16:55:23.474Z,14.37
2023-05-14T16:57:57.197Z,14.36
2023-05-14T17:00:29.787Z,14.35
2023-05-14T17:03:03.330Z,14.34
2023-05-14T17:05:33.774Z,14.34
2023-05-14T17:08:04.899Z,14.33
2023-05-14T17:10:36.829Z,14.34
2023-05-14T17:13:08.289Z,14.34
2023-05-14T17:15:57.164Z,14.33
2023-05-14T17:18:27.888Z,14.32
2023-05-14T17:20:58.992Z,14.31
2023-05-14T17:23:30.555Z,14.32
2023-05-14T17:26:03.411Z,14.34
2023-05-14T17:28:43.246Z,14.35
2023-05-14T17:31:15.724Z,14.37
2023-05-14T17:33:46.366Z,14.37
2023-05-14T17:36:18.585Z,14.38
2023-05-14T17:38:49.376Z,14.38
2023-05-14T17:41:21.444Z,14.38
2023-05-14T17:43:52.742Z,14.38
2023-05-14T17:46:24.554Z,14.34
2023-05-14T17:48:54.986Z,14.33
2023-05-14T17:51:25.607Z,14.31
2023-05-14T17:54:01.259Z,14.27
2023-05-14T17:56:33.770Z,14.19
2023-05-14T17:59:14.990Z,14.15
2023-05-14T18:01:46.126Z,14.12
2023-05-14T18:04:16.369Z,14.08
2023-05-14T18:06:47.455Z,14.03
2023-05-14T18:09:17.600Z,14.00
2023-05-14T18:11:48.364Z,13.99
2023-05-14T18:14:18.773Z,14.00
2023-05-14T18:16:50.122Z,14.02
2023-05-14T18:19:32.703Z,14.02
2023-05-14T18:22:03.117Z,14.00
2023-05-14T18:24:33.659Z,13.99
2023-05-14T18:27:04.148Z,13.98
2023-05-14T18:29:36.668Z,13.97
2023-05-14T18:32:11.467Z,13.96
2023-05-14T18:34:43.258Z,13.95
2023-05-14T18:37:15.423Z,13.96
2023-05-14T18:39:45.842Z,13.95
2023-05-14T18:42:18.628Z,13.94
2023-05-14T18:44:50.243Z,13.96
2023-05-14T18:47:21.037Z,13.98
2023-05-14T18:49:56.110Z,14.00
2023-05-14T18:52:27.872Z,14.01
2023-05-14T18:55:01.864Z,14.00
2023-05-14T18:57:32.997Z,13.96
2023-05-14T19:00:06.099Z,13.92
2023-05-14T19:02:37.091Z,13.88
2023-05-14T19:05:09.819Z,13.82
2023-05-14T19:07:41.600Z,13.76
2023-05-14T19:10:15.609Z,13.73
2023-05-14T19:12:46.947Z,13.69
2023-05-14T19:15:17.665Z,13.66
2023-05-14T19:17:48.848Z,13.66
2023-05-14T19:20:20.892Z,13.65
2023-05-14T19:22:51.234Z,13.64
2023-05-14T19:25:24.623Z,13.62
2023-05-14T19:27:55.584Z,13.63
2023-05-14T19:30:26.538Z,13.64
2023-05-14T19:32:59.378Z,13.63
2023-05-14T19:35:30.031Z,13.61
2023-05-14T19:38:00.629Z,13.61
2023-05-14T19:40:31.074Z,13.61
2023-05-14T19:43:01.353Z,13.61
2023-05-14T19:45:31.991Z,13.60
2023-05-14T19:48:02.458Z,13.59
2023-05-14T19:50:33.901Z,13.59
2023-05-14T19:53:04.493Z,13.58
2023-05-14T19:55:34.936Z,13.55
2023-05-14T19:58:05.515Z,13.54
2023-05-14T20:00:37.206Z,13.51
2023-05-14T20:03:08.350Z,13.50
2023-05-14T20:05:44.940Z,13.49
2023-05-14T20:08:18.953Z,13.47
2023-05-14T20:10:49.800Z,13.43
2023-05-14T20:13:21.343Z,13.40
2023-05-14T20:16:00.788Z,13.38
2023-05-14T20:18:31.659Z,13.33
2023-05-14T20:21:03.572Z,13.29
2023-05-14T20:23:35.025Z,13.26
2023-05-14T20:26:05.763Z,13.23
2023-05-14T20:28:45.011Z,13.20
2023-05-14T20:31:17.533Z,13.16
2023-05-14T20:33:49.787Z,13.15
2023-05-14T20:36:29.630Z,13.11
2023-05-14T20:39:01.735Z,13.07
2023-05-14T20:41:34.411Z,13.07
2023-05-14T20:44:09.518Z,13.06
2023-05-14T20:46:43.373Z,13.05
2023-05-14T20:49:17.112Z,13.05
2023-05-14T20:51:47.988Z,13.06
2023-05-14T20:54:19.306Z,13.05
2023-05-14T20:56:49.899Z,13.06
2023-05-14T20:59:20.898Z,13.07
2023-05-14T21:01:52.746Z,13.06
2023-05-14T21:04:23.427Z,13.05
2023-05-14T21:06:54.812Z,13.03
2023-05-14T21:09:27.020Z,13.02
2023-05-14T21:11:57.483Z,13.01
2023-05-14T21:14:28.414Z,13.03
2023-05-14T21:17:00.374Z,13.04
2023-05-14T21:19:31.110Z,13.06
2023-05-14T21:22:01.496Z,13.07
2023-05-14T21:24:32.222Z,13.06
2023-05-14T21:27:03.054Z,13.06
2023-05-14T21:29:33.288Z,13.06
2023-05-14T21:32:03.717Z,13.07
2023-05-14T21:34:33.948Z,13.08
2023-05-14T21:37:04.523Z,13.08
2023-05-14T21:39:35.046Z,13.08
2023-05-14T21:42:07.413Z,13.08
2023-05-14T21:44:37.632Z,13.08
2023-05-14T21:47:09.158Z,13.06
2023-05-14T21:49:39.661Z,13.08
2023-05-14T21:52:10.542Z,13.07
2023-05-14T21:54:40.827Z,13.05
2023-05-14T21:57:11.040Z,13.07
2023-05-14T21:59:41.703Z,13.08
2023-05-14T22:02:12.179Z,13.08
2023-05-14T22:04:42.955Z,13.09
2023-05-14T22:07:13.432Z,13.10
2023-05-14T22:09:43.994Z,13.08
2023-05-14T22:12:14.265Z,13.08
2023-05-14T22:14:44.600Z,13.08
2023-05-14T22:17:15.034Z,13.07
2023-05-14T22:19:45.302Z,13.06
2023-05-14T22:22:15.598Z,13.05
2023-05-14T22:24:46.032Z,13.02
2023-05-14T22:27:16.214Z,13.00
2023-05-14T22:29:46.449Z,12.99
2023-05-14T22:32:16.812Z,12.95
2023-05-14T22:34:47.838Z,12.93
2023-05-14T22:37:19.318Z,12.90
2023-05-14T22:39:49.349Z,12.88
2023-05-14T22:42:20.512Z,12.86
2023-05-14T22:44:51.064Z,12.84
2023-05-14T22:47:21.704Z,12.82
2023-05-14T22:49:52.343Z,12.81
2023-05-14T22:52:22.713Z,12.81
2023-05-14T22:54:53.039Z,12.79
2023-05-14T22:57:23.286Z,12.76
2023-05-14T22:59:53.970Z,12.74
2023-05-14T23:02:24.327Z,12.69
2023-05-14T23:04:54.726Z,12.67
2023-05-14T23:07:25.154Z,12.67
2023-05-14T23:09:55.784Z,12.67
2023-05-14T23:12:25.992Z,12.68
2023-05-14T23:14:56.460Z,12.69
2023-05-14T23:17:27.122Z,12.68
2023-05-14T23:19:57.776Z,12.68
2023-05-14T23:22:28.076Z,12.69
2023-05-14T23:24:58.581Z,12.69
2023-05-14T23:27:28.804Z,12.68
2023-05-14T23:29:59.120Z,12.67
2023-05-14T23:32:29.555Z,12.66
2023-05-14T23:34:59.919Z,12.64
2023-05-14T23:37:30.313Z,12.62
2023-05-14T23:40:01.435Z,12.62
2023-05-14T23:42:31.891Z,12.63
2023-05-14T23:45:02.083Z,12.63
2023-05-14T23:47:32.578Z,12.64
2023-05-14T23:50:03.285Z,12.65
2023-05-14T23:52:33.580Z,12.63
2023-05-14T23:55:04.231Z,12.62
2023-05-14T23:57:35.355Z,12.61
